Route Details

Aircraft Information
Group: Trans-Pacific Ops
Types: B744, MD11
Route Data
Distance: 2051nm
Duration: 4h 25m
Origin METAR: PANC 100453Z 02008KT 10SM CLR M11/M18 A3008 RMK AO2 SLP191 T11111178
Dest. METAR: KONT 100453Z 00000KT 10SM CLR 10/06 A3012 RMK AO2 SLP201 T01000056
Freight Data
(for Dec 10, 2022)
Load Factor:
75%
Manifested Cargo: 156,052lbs
Financial History
Total Freight: 416,224lbs
Average Load: 0lbs/flt
Fuel Used: 338,547lbs
Avg. Fuel Used: 0lbs/flt
Fuel Expense: $188,546
Avg. Fuel Expense: $0
Avg. Fuel Cost: $0/lbs
Total Gross Income: $1,090,507
Pilot Pay: $1,055
Total Expenses: $215,726
Total Revenue: $678,394
Average Revenue: $0

Capitol Logistics 851




PANC
Ted Stevens Anchorage International Airport
Anchorage, Alaska
KONT
Ontario International Airport
Ontario, California